sensor_id;sensor_type;location;lat;lon;timestamp;temperature;humidity
52675;DHT22;38569;52.722;6.440;2023-02-28T00:00:17;3.30;99.90
52675;DHT22;38569;52.722;6.440;2023-02-28T00:02:44;3.30;99.90
52675;DHT22;38569;52.722;6.440;2023-02-28T00:05:12;3.30;99.90
52675;DHT22;38569;52.722;6.440;2023-02-28T00:07:38;3.40;99.90
52675;DHT22;38569;52.722;6.440;2023-02-28T00:10:08;3.40;99.90
52675;DHT22;38569;52.722;6.440;2023-02-28T00:12:35;3.40;99.90
52675;DHT22;38569;52.722;6.440;2023-02-28T00:15:02;3.40;99.90
52675;DHT22;38569;52.722;6.440;2023-02-28T00:17:28;3.40;99.90
52675;DHT22;38569;52.722;6.440;2023-02-28T00:19:53;3.40;99.90
52675;DHT22;38569;52.722;6.440;2023-02-28T00:22:20;3.40;99.90
52675;DHT22;38569;52.722;6.440;2023-02-28T00:24:46;3.50;99.90
52675;DHT22;38569;52.722;6.440;2023-02-28T00:27:13;3.40;99.90
52675;DHT22;38569;52.722;6.440;2023-02-28T00:29:39;3.50;99.90
52675;DHT22;38569;52.722;6.440;2023-02-28T00:32:06;3.50;99.90
52675;DHT22;38569;52.722;6.440;2023-02-28T00:34:32;3.50;99.90
52675;DHT22;38569;52.722;6.440;2023-02-28T00:37:07;3.60;99.90
52675;DHT22;38569;52.722;6.440;2023-02-28T00:39:35;3.60;99.90
52675;DHT22;38569;52.722;6.440;2023-02-28T00:42:02;3.60;99.90
52675;DHT22;38569;52.722;6.440;2023-02-28T00:44:28;3.60;99.90
52675;DHT22;38569;52.722;6.440;2023-02-28T00:46:54;3.60;99.90
52675;DHT22;38569;52.722;6.440;2023-02-28T00:49:21;3.70;99.90
52675;DHT22;38569;52.722;6.440;2023-02-28T00:51:48;3.70;99.90
52675;DHT22;38569;52.722;6.440;2023-02-28T00:54:14;3.70;99.90
52675;DHT22;38569;52.722;6.440;2023-02-28T00:56:40;3.80;99.90
52675;DHT22;38569;52.722;6.440;2023-02-28T00:59:05;3.70;99.90
52675;DHT22;38569;52.722;6.440;2023-02-28T01:01:32;3.70;99.90
52675;DHT22;38569;52.722;6.440;2023-02-28T01:03:57;3.80;99.90
52675;DHT22;38569;52.722;6.440;2023-02-28T01:06:23;3.80;99.90
52675;DHT22;38569;52.722;6.440;2023-02-28T01:08:49;3.80;99.90
52675;DHT22;38569;52.722;6.440;2023-02-28T01:11:17;3.90;99.90
52675;DHT22;38569;52.722;6.440;2023-02-28T01:13:44;4.10;99.90
52675;DHT22;38569;52.722;6.440;2023-02-28T01:16:11;4.10;99.90
52675;DHT22;38569;52.722;6.440;2023-02-28T01:18:37;4.20;99.90
52675;DHT22;38569;52.722;6.440;2023-02-28T01:21:08;4.20;99.90
52675;DHT22;38569;52.722;6.440;2023-02-28T01:23:35;4.20;99.90
52675;DHT22;38569;52.722;6.440;2023-02-28T01:26:20;4.30;99.90
52675;DHT22;38569;52.722;6.440;2023-02-28T01:28:47;4.30;99.90
52675;DHT22;38569;52.722;6.440;2023-02-28T01:31:13;4.30;99.90
52675;DHT22;38569;52.722;6.440;2023-02-28T01:33:39;4.30;99.90
52675;DHT22;38569;52.722;6.440;2023-02-28T01:36:10;4.20;99.90
52675;DHT22;38569;52.722;6.440;2023-02-28T01:38:36;4.10;99.90
52675;DHT22;38569;52.722;6.440;2023-02-28T01:41:03;4.10;99.90
52675;DHT22;38569;52.722;6.440;2023-02-28T01:43:53;4.00;99.90
52675;DHT22;38569;52.722;6.440;2023-02-28T01:46:19;4.10;99.90
52675;DHT22;38569;52.722;6.440;2023-02-28T01:48:58;4.00;99.90
52675;DHT22;38569;52.722;6.440;2023-02-28T01:51:44;4.10;99.90
52675;DHT22;38569;52.722;6.440;2023-02-28T01:54:20;4.20;99.90
52675;DHT22;38569;52.722;6.440;2023-02-28T01:56:54;4.20;99.90
52675;DHT22;38569;52.722;6.440;2023-02-28T01:59:27;4.30;99.90
52675;DHT22;38569;52.722;6.440;2023-02-28T02:01:55;4.30;99.90
52675;DHT22;38569;52.722;6.440;2023-02-28T02:04:23;4.30;99.90
52675;DHT22;38569;52.722;6.440;2023-02-28T02:06:52;4.30;99.90
52675;DHT22;38569;52.722;6.440;2023-02-28T02:09:17;4.40;99.90
52675;DHT22;38569;52.722;6.440;2023-02-28T02:11:45;4.30;99.90
52675;DHT22;38569;52.722;6.440;2023-02-28T02:14:31;4.20;99.90
52675;DHT22;38569;52.722;6.440;2023-02-28T02:22:35;4.20;99.90
52675;DHT22;38569;52.722;6.440;2023-02-28T02:35:56;4.30;99.90
52675;DHT22;38569;52.722;6.440;2023-02-28T02:38:36;4.30;99.90
52675;DHT22;38569;52.722;6.440;2023-02-28T02:41:24;4.20;99.90
52675;DHT22;38569;52.722;6.440;2023-02-28T02:46:41;4.20;99.90
52675;DHT22;38569;52.722;6.440;2023-02-28T02:49:20;4.20;99.90
52675;DHT22;38569;52.722;6.440;2023-02-28T02:51:47;4.20;99.90
52675;DHT22;38569;52.722;6.440;2023-02-28T02:54:17;4.20;99.90
52675;DHT22;38569;52.722;6.440;2023-02-28T02:56:47;4.20;99.90
52675;DHT22;38569;52.722;6.440;2023-02-28T02:59:17;4.20;99.90
52675;DHT22;38569;52.722;6.440;2023-02-28T03:01:53;4.10;99.90
52675;DHT22;38569;52.722;6.440;2023-02-28T03:04:21;4.00;99.90
52675;DHT22;38569;52.722;6.440;2023-02-28T03:06:48;3.90;99.90
52675;DHT22;38569;52.722;6.440;2023-02-28T03:09:15;3.90;99.90
52675;DHT22;38569;52.722;6.440;2023-02-28T03:11:41;3.90;99.90
52675;DHT22;38569;52.722;6.440;2023-02-28T03:14:56;3.90;99.90
52675;DHT22;38569;52.722;6.440;2023-02-28T03:17:02;3.90;99.90
52675;DHT22;38569;52.722;6.440;2023-02-28T03:22:14;4.00;99.90
52675;DHT22;38569;52.722;6.440;2023-02-28T03:25:07;4.00;99.90
52675;DHT22;38569;52.722;6.440;2023-02-28T03:27:39;4.00;99.90
52675;DHT22;38569;52.722;6.440;2023-02-28T03:30:22;4.00;99.90
52675;DHT22;38569;52.722;6.440;2023-02-28T03:35:20;4.00;99.90
52675;DHT22;38569;52.722;6.440;2023-02-28T03:37:51;4.00;99.90
52675;DHT22;38569;52.722;6.440;2023-02-28T03:40:23;4.00;99.90
52675;DHT22;38569;52.722;6.440;2023-02-28T03:42:55;4.00;99.90
52675;DHT22;38569;52.722;6.440;2023-02-28T03:45:26;4.00;99.90
52675;DHT22;38569;52.722;6.440;2023-02-28T03:48:04;4.10;99.90
52675;DHT22;38569;52.722;6.440;2023-02-28T03:50:42;4.10;99.90
52675;DHT22;38569;52.722;6.440;2023-02-28T03:53:32;4.10;99.90
52675;DHT22;38569;52.722;6.440;2023-02-28T04:01:21;4.10;99.90
52675;DHT22;38569;52.722;6.440;2023-02-28T04:03:49;4.10;99.90
52675;DHT22;38569;52.722;6.440;2023-02-28T04:06:18;4.00;99.90
52675;DHT22;38569;52.722;6.440;2023-02-28T04:08:45;4.10;99.90
52675;DHT22;38569;52.722;6.440;2023-02-28T04:13:42;4.10;99.90
52675;DHT22;38569;52.722;6.440;2023-02-28T04:16:08;4.10;99.90
52675;DHT22;38569;52.722;6.440;2023-02-28T04:18:41;4.10;99.90
52675;DHT22;38569;52.722;6.440;2023-02-28T04:21:09;4.10;99.90
52675;DHT22;38569;52.722;6.440;2023-02-28T04:23:35;4.10;99.90
52675;DHT22;38569;52.722;6.440;2023-02-28T04:26:01;4.10;99.90
52675;DHT22;38569;52.722;6.440;2023-02-28T04:28:26;4.00;99.90
52675;DHT22;38569;52.722;6.440;2023-02-28T04:31:01;4.00;99.90
52675;DHT22;38569;52.722;6.440;2023-02-28T04:33:27;3.90;99.90
52675;DHT22;38569;52.722;6.440;2023-02-28T04:36:04;4.00;99.90
52675;DHT22;38569;52.722;6.440;2023-02-28T04:38:33;3.90;99.90
52675;DHT22;38569;52.722;6.440;2023-02-28T04:41:00;3.80;99.90
52675;DHT22;38569;52.722;6.440;2023-02-28T04:43:27;3.70;99.90
52675;DHT22;38569;52.722;6.440;2023-02-28T04:45:53;3.70;99.90
52675;DHT22;38569;52.722;6.440;2023-02-28T04:48:23;3.60;99.90
52675;DHT22;38569;52.722;6.440;2023-02-28T04:50:50;3.60;99.90
52675;DHT22;38569;52.722;6.440;2023-02-28T04:53:16;3.60;99.90
52675;DHT22;38569;52.722;6.440;2023-02-28T04:55:41;3.50;99.90
52675;DHT22;38569;52.722;6.440;2023-02-28T04:58:07;3.40;99.90
52675;DHT22;38569;52.722;6.440;2023-02-28T05:00:33;3.40;99.90
52675;DHT22;38569;52.722;6.440;2023-02-28T05:02:59;3.40;99.90
52675;DHT22;38569;52.722;6.440;2023-02-28T05:05:24;3.40;99.90
52675;DHT22;38569;52.722;6.440;2023-02-28T05:07:50;3.40;99.90
52675;DHT22;38569;52.722;6.440;2023-02-28T05:10:16;3.50;99.90
52675;DHT22;38569;52.722;6.440;2023-02-28T05:12:42;3.50;99.90
52675;DHT22;38569;52.722;6.440;2023-02-28T05:15:12;3.50;99.90
52675;DHT22;38569;52.722;6.440;2023-02-28T05:17:38;3.50;99.90
52675;DHT22;38569;52.722;6.440;2023-02-28T05:20:04;3.40;99.90
52675;DHT22;38569;52.722;6.440;2023-02-28T05:22:30;3.40;99.90
52675;DHT22;38569;52.722;6.440;2023-02-28T05:24:56;3.50;99.90
52675;DHT22;38569;52.722;6.440;2023-02-28T05:27:21;3.40;99.90
52675;DHT22;38569;52.722;6.440;2023-02-28T05:29:48;3.50;99.90
52675;DHT22;38569;52.722;6.440;2023-02-28T05:32:14;3.60;99.90
52675;DHT22;38569;52.722;6.440;2023-02-28T05:34:41;3.60;99.90
52675;DHT22;38569;52.722;6.440;2023-02-28T05:37:11;3.60;99.90
52675;DHT22;38569;52.722;6.440;2023-02-28T05:39:37;3.70;99.90
52675;DHT22;38569;52.722;6.440;2023-02-28T05:42:04;3.70;99.90
52675;DHT22;38569;52.722;6.440;2023-02-28T05:44:30;3.70;99.90
52675;DHT22;38569;52.722;6.440;2023-02-28T05:46:56;3.70;99.90
52675;DHT22;38569;52.722;6.440;2023-02-28T05:49:22;3.70;99.90
52675;DHT22;38569;52.722;6.440;2023-02-28T05:51:47;3.60;99.90
52675;DHT22;38569;52.722;6.440;2023-02-28T05:54:13;3.60;99.90
52675;DHT22;38569;52.722;6.440;2023-02-28T05:56:39;3.50;99.90
52675;DHT22;38569;52.722;6.440;2023-02-28T05:59:06;3.50;99.90
52675;DHT22;38569;52.722;6.440;2023-02-28T06:01:36;3.50;99.90
52675;DHT22;38569;52.722;6.440;2023-02-28T06:04:04;3.50;99.90
52675;DHT22;38569;52.722;6.440;2023-02-28T06:06:30;3.50;99.90
52675;DHT22;38569;52.722;6.440;2023-02-28T06:08:56;3.40;99.90
52675;DHT22;38569;52.722;6.440;2023-02-28T06:11:22;3.30;99.90
52675;DHT22;38569;52.722;6.440;2023-02-28T06:13:57;3.40;99.90
52675;DHT22;38569;52.722;6.440;2023-02-28T06:16:25;3.40;99.90
52675;DHT22;38569;52.722;6.440;2023-02-28T06:18:50;3.40;99.90
52675;DHT22;38569;52.722;6.440;2023-02-28T06:21:18;3.30;99.90
52675;DHT22;38569;52.722;6.440;2023-02-28T06:23:44;3.40;99.90
52675;DHT22;38569;52.722;6.440;2023-02-28T06:26:10;3.30;99.90
52675;DHT22;38569;52.722;6.440;2023-02-28T06:28:36;3.20;99.90
52675;DHT22;38569;52.722;6.440;2023-02-28T06:31:11;3.20;99.90
52675;DHT22;38569;52.722;6.440;2023-02-28T06:33:38;3.10;99.90
52675;DHT22;38569;52.722;6.440;2023-02-28T06:36:05;3.10;99.90
52675;DHT22;38569;52.722;6.440;2023-02-28T06:38:31;3.10;99.90
52675;DHT22;38569;52.722;6.440;2023-02-28T06:40:59;3.10;99.90
52675;DHT22;38569;52.722;6.440;2023-02-28T06:43:27;3.10;99.90
52675;DHT22;38569;52.722;6.440;2023-02-28T06:45:58;3.00;99.90
52675;DHT22;38569;52.722;6.440;2023-02-28T06:48:25;3.00;99.90
52675;DHT22;38569;52.722;6.440;2023-02-28T06:50:51;2.90;99.90
52675;DHT22;38569;52.722;6.440;2023-02-28T06:53:17;3.00;99.90
52675;DHT22;38569;52.722;6.440;2023-02-28T06:55:42;3.00;99.90
52675;DHT22;38569;52.722;6.440;2023-02-28T06:58:08;3.10;99.90
52675;DHT22;38569;52.722;6.440;2023-02-28T07:00:41;3.10;99.90
52675;DHT22;38569;52.722;6.440;2023-02-28T07:03:07;3.10;99.90
52675;DHT22;38569;52.722;6.440;2023-02-28T07:05:35;3.00;99.90
52675;DHT22;38569;52.722;6.440;2023-02-28T07:08:02;3.00;99.90
52675;DHT22;38569;52.722;6.440;2023-02-28T07:10:29;3.00;99.90
52675;DHT22;38569;52.722;6.440;2023-02-28T07:12:54;3.00;99.90
52675;DHT22;38569;52.722;6.440;2023-02-28T07:15:20;3.10;99.90
52675;DHT22;38569;52.722;6.440;2023-02-28T07:17:46;3.20;99.90
52675;DHT22;38569;52.722;6.440;2023-02-28T07:20:12;3.10;99.90
52675;DHT22;38569;52.722;6.440;2023-02-28T07:22:37;3.20;99.90
52675;DHT22;38569;52.722;6.440;2023-02-28T07:25:05;3.30;99.90
52675;DHT22;38569;52.722;6.440;2023-02-28T07:27:32;3.40;99.90
52675;DHT22;38569;52.722;6.440;2023-02-28T07:30:00;3.40;99.90
52675;DHT22;38569;52.722;6.440;2023-02-28T07:32:29;3.30;99.90
52675;DHT22;38569;52.722;6.440;2023-02-28T07:34:55;3.30;99.90
52675;DHT22;38569;52.722;6.440;2023-02-28T07:37:20;3.20;99.90
52675;DHT22;38569;52.722;6.440;2023-02-28T07:39:46;3.20;99.90
52675;DHT22;38569;52.722;6.440;2023-02-28T07:42:12;3.30;99.90
52675;DHT22;38569;52.722;6.440;2023-02-28T07:44:41;3.30;99.90
52675;DHT22;38569;52.722;6.440;2023-02-28T07:47:09;3.20;99.90
52675;DHT22;38569;52.722;6.440;2023-02-28T07:49:38;3.30;99.90
52675;DHT22;38569;52.722;6.440;2023-02-28T07:52:05;3.40;99.90
52675;DHT22;38569;52.722;6.440;2023-02-28T07:54:31;3.50;99.90
52675;DHT22;38569;52.722;6.440;2023-02-28T07:56:57;3.70;99.90
52675;DHT22;38569;52.722;6.440;2023-02-28T07:59:23;3.90;99.90
52675;DHT22;38569;52.722;6.440;2023-02-28T08:01:48;4.00;99.90
52675;DHT22;38569;52.722;6.440;2023-02-28T08:04:17;4.10;99.90
52675;DHT22;38569;52.722;6.440;2023-02-28T08:06:43;4.40;99.90
52675;DHT22;38569;52.722;6.440;2023-02-28T08:09:09;4.60;99.90
52675;DHT22;38569;52.722;6.440;2023-02-28T08:11:35;4.70;99.90
52675;DHT22;38569;52.722;6.440;2023-02-28T08:14:01;4.70;99.90
52675;DHT22;38569;52.722;6.440;2023-02-28T08:16:27;4.70;99.90
52675;DHT22;38569;52.722;6.440;2023-02-28T08:18:53;4.80;99.90
52675;DHT22;38569;52.722;6.440;2023-02-28T08:21:20;4.50;99.90
52675;DHT22;38569;52.722;6.440;2023-02-28T08:23:50;4.40;99.90
52675;DHT22;38569;52.722;6.440;2023-02-28T08:26:17;4.20;99.90
52675;DHT22;38569;52.722;6.440;2023-02-28T08:28:43;4.10;99.90
52675;DHT22;38569;52.722;6.440;2023-02-28T08:31:14;4.20;99.90
52675;DHT22;38569;52.722;6.440;2023-02-28T08:33:41;4.30;99.90
52675;DHT22;38569;52.722;6.440;2023-02-28T08:36:09;4.30;99.90
52675;DHT22;38569;52.722;6.440;2023-02-28T08:38:35;4.40;99.90
52675;DHT22;38569;52.722;6.440;2023-02-28T08:41:04;4.50;99.90
52675;DHT22;38569;52.722;6.440;2023-02-28T08:43:33;4.80;99.90
52675;DHT22;38569;52.722;6.440;2023-02-28T08:45:59;5.00;99.90
52675;DHT22;38569;52.722;6.440;2023-02-28T08:48:27;5.20;99.90
52675;DHT22;38569;52.722;6.440;2023-02-28T08:51:01;5.40;99.90
52675;DHT22;38569;52.722;6.440;2023-02-28T08:53:27;5.50;99.90
52675;DHT22;38569;52.722;6.440;2023-02-28T08:56:05;5.40;99.90
52675;DHT22;38569;52.722;6.440;2023-02-28T08:58:32;5.40;99.90
52675;DHT22;38569;52.722;6.440;2023-02-28T09:00:58;5.60;99.90
52675;DHT22;38569;52.722;6.440;2023-02-28T09:03:24;5.80;99.90
52675;DHT22;38569;52.722;6.440;2023-02-28T09:05:58;6.10;99.90
52675;DHT22;38569;52.722;6.440;2023-02-28T09:08:25;6.40;99.90
52675;DHT22;38569;52.722;6.440;2023-02-28T09:10:51;6.60;99.90
52675;DHT22;38569;52.722;6.440;2023-02-28T09:13:18;6.80;99.90
52675;DHT22;38569;52.722;6.440;2023-02-28T09:15:44;6.80;99.90
52675;DHT22;38569;52.722;6.440;2023-02-28T09:18:10;6.90;99.90
52675;DHT22;38569;52.722;6.440;2023-02-28T09:20:40;6.90;99.90
52675;DHT22;38569;52.722;6.440;2023-02-28T09:23:07;6.90;99.90
52675;DHT22;38569;52.722;6.440;2023-02-28T09:25:34;6.80;99.90
52675;DHT22;38569;52.722;6.440;2023-02-28T09:28:00;6.80;99.90
52675;DHT22;38569;52.722;6.440;2023-02-28T09:30:26;6.70;99.90
52675;DHT22;38569;52.722;6.440;2023-02-28T09:32:51;6.80;99.90
52675;DHT22;38569;52.722;6.440;2023-02-28T09:35:23;7.00;99.90
52675;DHT22;38569;52.722;6.440;2023-02-28T09:37:51;7.20;99.90
52675;DHT22;38569;52.722;6.440;2023-02-28T09:40:23;7.30;99.90
52675;DHT22;38569;52.722;6.440;2023-02-28T09:42:52;7.10;99.90
52675;DHT22;38569;52.722;6.440;2023-02-28T09:45:37;7.00;99.90
52675;DHT22;38569;52.722;6.440;2023-02-28T09:48:16;6.90;99.90
52675;DHT22;38569;52.722;6.440;2023-02-28T09:50:49;6.90;99.90
52675;DHT22;38569;52.722;6.440;2023-02-28T09:53:25;6.90;99.90
52675;DHT22;38569;52.722;6.440;2023-02-28T09:55:57;6.80;99.90
52675;DHT22;38569;52.722;6.440;2023-02-28T09:58:33;6.80;99.90
52675;DHT22;38569;52.722;6.440;2023-02-28T10:01:17;8.00;99.90
52675;DHT22;38569;52.722;6.440;2023-02-28T10:03:51;9.60;99.90
52675;DHT22;38569;52.722;6.440;2023-02-28T10:06:26;10.30;99.90
52675;DHT22;38569;52.722;6.440;2023-02-28T10:09:14;11.00;99.90
52675;DHT22;38569;52.722;6.440;2023-02-28T10:11:41;11.80;99.90
52675;DHT22;38569;52.722;6.440;2023-02-28T10:14:20;12.50;97.00
52675;DHT22;38569;52.722;6.440;2023-02-28T10:19:44;13.60;92.10
52675;DHT22;38569;52.722;6.440;2023-02-28T10:22:21;14.20;85.30
52675;DHT22;38569;52.722;6.440;2023-02-28T10:24:50;14.80;80.30
52675;DHT22;38569;52.722;6.440;2023-02-28T10:27:21;15.10;74.70
52675;DHT22;38569;52.722;6.440;2023-02-28T10:29:50;14.90;78.20
52675;DHT22;38569;52.722;6.440;2023-02-28T10:32:21;14.80;70.80
52675;DHT22;38569;52.722;6.440;2023-02-28T10:34:57;14.60;72.60
52675;DHT22;38569;52.722;6.440;2023-02-28T10:37:24;14.80;68.50
52675;DHT22;38569;52.722;6.440;2023-02-28T10:39:50;15.10;72.10
52675;DHT22;38569;52.722;6.440;2023-02-28T10:42:25;15.60;67.10
52675;DHT22;38569;52.722;6.440;2023-02-28T10:45:14;15.80;61.80
52675;DHT22;38569;52.722;6.440;2023-02-28T10:47:58;15.20;54.90
52675;DHT22;38569;52.722;6.440;2023-02-28T10:50:43;14.70;58.70
52675;DHT22;38569;52.722;6.440;2023-02-28T10:55:42;14.90;62.10
52675;DHT22;38569;52.722;6.440;2023-02-28T10:58:26;15.50;62.00
52675;DHT22;38569;52.722;6.440;2023-02-28T11:00:52;16.00;60.40
52675;DHT22;38569;52.722;6.440;2023-02-28T11:03:36;15.80;54.40
52675;DHT22;38569;52.722;6.440;2023-02-28T11:06:07;14.40;54.00
52675;DHT22;38569;52.722;6.440;2023-02-28T11:08:34;14.60;58.10
52675;DHT22;38569;52.722;6.440;2023-02-28T11:11:08;14.90;57.70
52675;DHT22;38569;52.722;6.440;2023-02-28T11:13:35;14.80;57.60
52675;DHT22;38569;52.722;6.440;2023-02-28T11:16:09;14.20;56.50
52675;DHT22;38569;52.722;6.440;2023-02-28T11:21:23;14.60;56.00
52675;DHT22;38569;52.722;6.440;2023-02-28T11:23:53;13.70;57.50
52675;DHT22;38569;52.722;6.440;2023-02-28T11:26:45;14.50;57.50
52675;DHT22;38569;52.722;6.440;2023-02-28T11:29:29;15.30;59.00
52675;DHT22;38569;52.722;6.440;2023-02-28T11:32:03;16.20;56.90
52675;DHT22;38569;52.722;6.440;2023-02-28T11:34:29;16.70;58.70
52675;DHT22;38569;52.722;6.440;2023-02-28T11:36:57;17.30;56.30
52675;DHT22;38569;52.722;6.440;2023-02-28T11:39:24;17.70;54.90
52675;DHT22;38569;52.722;6.440;2023-02-28T11:44:31;17.30;53.30
52675;DHT22;38569;52.722;6.440;2023-02-28T12:03:57;13.00;55.50
52675;DHT22;38569;52.722;6.440;2023-02-28T12:06:58;13.00;53.50
52675;DHT22;38569;52.722;6.440;2023-02-28T12:09:47;12.10;54.30
52675;DHT22;38569;52.722;6.440;2023-02-28T12:15:13;11.90;55.70
52675;DHT22;38569;52.722;6.440;2023-02-28T12:17:52;12.50;55.60
52675;DHT22;38569;52.722;6.440;2023-02-28T12:23:19;12.30;55.60
52675;DHT22;38569;52.722;6.440;2023-02-28T12:26:00;11.80;55.80
52675;DHT22;38569;52.722;6.440;2023-02-28T12:28:33;11.80;56.00
52675;DHT22;38569;52.722;6.440;2023-02-28T12:31:01;11.10;56.90
52675;DHT22;38569;52.722;6.440;2023-02-28T12:33:36;11.20;59.30
52675;DHT22;38569;52.722;6.440;2023-02-28T12:36:15;11.70;56.80
52675;DHT22;38569;52.722;6.440;2023-02-28T12:39:12;11.20;55.00
52675;DHT22;38569;52.722;6.440;2023-02-28T12:42:10;10.60;55.50
52675;DHT22;38569;52.722;6.440;2023-02-28T12:44:46;10.60;55.40
52675;DHT22;38569;52.722;6.440;2023-02-28T12:47:15;10.90;57.60
52675;DHT22;38569;52.722;6.440;2023-02-28T12:49:46;11.10;56.90
52675;DHT22;38569;52.722;6.440;2023-02-28T12:52:23;10.50;56.70
52675;DHT22;38569;52.722;6.440;2023-02-28T12:55:02;10.50;58.20
52675;DHT22;38569;52.722;6.440;2023-02-28T12:57:41;10.80;58.70
52675;DHT22;38569;52.722;6.440;2023-02-28T13:00:14;10.90;57.60
52675;DHT22;38569;52.722;6.440;2023-02-28T13:11:07;10.50;58.70
52675;DHT22;38569;52.722;6.440;2023-02-28T13:13:32;10.50;59.40
52675;DHT22;38569;52.722;6.440;2023-02-28T13:18:44;10.80;57.80
52675;DHT22;38569;52.722;6.440;2023-02-28T13:21:30;10.40;57.50
52675;DHT22;38569;52.722;6.440;2023-02-28T13:24:02;10.00;57.70
52675;DHT22;38569;52.722;6.440;2023-02-28T13:29:02;10.10;59.20
52675;DHT22;38569;52.722;6.440;2023-02-28T13:31:29;10.00;59.50
52675;DHT22;38569;52.722;6.440;2023-02-28T13:36:31;10.20;60.60
52675;DHT22;38569;52.722;6.440;2023-02-28T13:39:03;10.00;59.50
52675;DHT22;38569;52.722;6.440;2023-02-28T13:44:07;9.40;59.90
52675;DHT22;38569;52.722;6.440;2023-02-28T14:05:47;9.70;59.90
52675;DHT22;38569;52.722;6.440;2023-02-28T14:08:33;9.80;60.80
52675;DHT22;38569;52.722;6.440;2023-02-28T14:11:06;9.80;61.40
52675;DHT22;38569;52.722;6.440;2023-02-28T14:13:44;10.00;61.80
52675;DHT22;38569;52.722;6.440;2023-02-28T14:16:20;10.30;60.30
52675;DHT22;38569;52.722;6.440;2023-02-28T14:18:58;10.40;60.50
52675;DHT22;38569;52.722;6.440;2023-02-28T14:21:34;10.50;60.50
52675;DHT22;38569;52.722;6.440;2023-02-28T14:32:32;9.90;58.50
52675;DHT22;38569;52.722;6.440;2023-02-28T14:35:39;9.40;58.70
52675;DHT22;38569;52.722;6.440;2023-02-28T14:38:07;9.00;58.40
52675;DHT22;38569;52.722;6.440;2023-02-28T14:40:39;8.80;60.40
52675;DHT22;38569;52.722;6.440;2023-02-28T14:43:22;8.90;60.30
52675;DHT22;38569;52.722;6.440;2023-02-28T14:45:54;8.80;60.40
52675;DHT22;38569;52.722;6.440;2023-02-28T14:48:21;8.90;60.70
52675;DHT22;38569;52.722;6.440;2023-02-28T14:50:58;9.00;61.00
52675;DHT22;38569;52.722;6.440;2023-02-28T14:53:36;9.20;60.90
52675;DHT22;38569;52.722;6.440;2023-02-28T14:56:02;9.40;60.70
52675;DHT22;38569;52.722;6.440;2023-02-28T14:58:30;9.30;60.80
52675;DHT22;38569;52.722;6.440;2023-02-28T15:00:59;9.10;61.30
52675;DHT22;38569;52.722;6.440;2023-02-28T15:06:04;8.80;62.10
52675;DHT22;38569;52.722;6.440;2023-02-28T15:08:30;8.80;62.10
52675;DHT22;38569;52.722;6.440;2023-02-28T15:13:47;8.80;62.50
52675;DHT22;38569;52.722;6.440;2023-02-28T15:16:15;8.70;61.50
52675;DHT22;38569;52.722;6.440;2023-02-28T15:21:20;8.60;63.20
52675;DHT22;38569;52.722;6.440;2023-02-28T15:23:52;8.50;64.00
52675;DHT22;38569;52.722;6.440;2023-02-28T15:26:26;8.20;64.50
52675;DHT22;38569;52.722;6.440;2023-02-28T15:29:05;8.10;65.00
52675;DHT22;38569;52.722;6.440;2023-02-28T15:31:33;8.00;65.00
52675;DHT22;38569;52.722;6.440;2023-02-28T15:34:06;8.00;65.30
52675;DHT22;38569;52.722;6.440;2023-02-28T15:36:33;7.80;65.30
52675;DHT22;38569;52.722;6.440;2023-02-28T15:39:16;7.70;65.20
52675;DHT22;38569;52.722;6.440;2023-02-28T15:41:43;7.60;65.80
52675;DHT22;38569;52.722;6.440;2023-02-28T15:44:26;7.70;66.60
52675;DHT22;38569;52.722;6.440;2023-02-28T15:47:01;7.60;66.00
52675;DHT22;38569;52.722;6.440;2023-02-28T15:49:28;7.50;65.00
52675;DHT22;38569;52.722;6.440;2023-02-28T15:51:57;7.50;65.30
52675;DHT22;38569;52.722;6.440;2023-02-28T15:54:30;7.40;65.70
52675;DHT22;38569;52.722;6.440;2023-02-28T15:57:04;7.30;66.60
52675;DHT22;38569;52.722;6.440;2023-02-28T15:59:35;7.20;67.40
52675;DHT22;38569;52.722;6.440;2023-02-28T16:02:20;7.20;68.60
52675;DHT22;38569;52.722;6.440;2023-02-28T16:07:27;7.00;70.40
52675;DHT22;38569;52.722;6.440;2023-02-28T16:09:53;7.00;69.70
52675;DHT22;38569;52.722;6.440;2023-02-28T16:12:21;7.00;70.00
52675;DHT22;38569;52.722;6.440;2023-02-28T16:14:50;6.90;69.90
52675;DHT22;38569;52.722;6.440;2023-02-28T16:17:20;6.80;70.70
52675;DHT22;38569;52.722;6.440;2023-02-28T16:19:47;6.70;72.10
52675;DHT22;38569;52.722;6.440;2023-02-28T16:22:13;6.70;73.10
52675;DHT22;38569;52.722;6.440;2023-02-28T16:24:38;6.60;73.80
52675;DHT22;38569;52.722;6.440;2023-02-28T16:27:06;6.50;74.40
52675;DHT22;38569;52.722;6.440;2023-02-28T16:29:34;6.40;74.90
52675;DHT22;38569;52.722;6.440;2023-02-28T16:32:02;6.30;75.30
52675;DHT22;38569;52.722;6.440;2023-02-28T16:34:29;6.30;75.80
52675;DHT22;38569;52.722;6.440;2023-02-28T16:36:55;6.20;75.90
52675;DHT22;38569;52.722;6.440;2023-02-28T16:39:20;6.20;76.20
52675;DHT22;38569;52.722;6.440;2023-02-28T16:41:48;6.10;77.20
52675;DHT22;38569;52.722;6.440;2023-02-28T16:44:34;6.00;77.00
52675;DHT22;38569;52.722;6.440;2023-02-28T16:47:02;6.00;77.40
52675;DHT22;38569;52.722;6.440;2023-02-28T16:49:28;5.90;78.40
52675;DHT22;38569;52.722;6.440;2023-02-28T16:51:54;5.80;79.00
52675;DHT22;38569;52.722;6.440;2023-02-28T16:54:20;5.70;80.20
52675;DHT22;38569;52.722;6.440;2023-02-28T16:56:47;5.60;81.20
52675;DHT22;38569;52.722;6.440;2023-02-28T16:59:17;5.50;82.60
52675;DHT22;38569;52.722;6.440;2023-02-28T17:01:43;5.40;83.40
52675;DHT22;38569;52.722;6.440;2023-02-28T17:04:11;5.30;84.50
52675;DHT22;38569;52.722;6.440;2023-02-28T17:06:37;5.20;86.00
52675;DHT22;38569;52.722;6.440;2023-02-28T17:09:03;5.10;87.00
52675;DHT22;38569;52.722;6.440;2023-02-28T17:11:28;5.00;89.00
52675;DHT22;38569;52.722;6.440;2023-02-28T17:13:54;4.80;90.40
52675;DHT22;38569;52.722;6.440;2023-02-28T17:16:28;4.80;91.20
52675;DHT22;38569;52.722;6.440;2023-02-28T17:18:58;4.70;92.20
52675;DHT22;38569;52.722;6.440;2023-02-28T17:21:24;4.60;92.90
52675;DHT22;38569;52.722;6.440;2023-02-28T17:23:49;4.50;93.30
52675;DHT22;38569;52.722;6.440;2023-02-28T17:26:18;4.40;94.00
52675;DHT22;38569;52.722;6.440;2023-02-28T17:28:46;4.30;94.40
52675;DHT22;38569;52.722;6.440;2023-02-28T17:31:12;4.30;95.30
52675;DHT22;38569;52.722;6.440;2023-02-28T17:33:38;4.10;96.00
52675;DHT22;38569;52.722;6.440;2023-02-28T17:36:04;4.10;96.40
52675;DHT22;38569;52.722;6.440;2023-02-28T17:38:30;4.00;97.00
52675;DHT22;38569;52.722;6.440;2023-02-28T17:40:56;3.90;98.00
52675;DHT22;38569;52.722;6.440;2023-02-28T17:43:25;3.80;98.60
52675;DHT22;38569;52.722;6.440;2023-02-28T17:45:51;3.70;99.40
52675;DHT22;38569;52.722;6.440;2023-02-28T17:48:17;3.60;99.90
52675;DHT22;38569;52.722;6.440;2023-02-28T17:50:43;3.50;99.90
52675;DHT22;38569;52.722;6.440;2023-02-28T17:53:08;3.40;99.90
52675;DHT22;38569;52.722;6.440;2023-02-28T17:55:34;3.30;99.90
52675;DHT22;38569;52.722;6.440;2023-02-28T17:58:02;3.20;99.90
52675;DHT22;38569;52.722;6.440;2023-02-28T18:00:28;3.10;99.90
52675;DHT22;38569;52.722;6.440;2023-02-28T18:02:54;3.00;99.90